Time;durP1;ratioP1;P1;durP2;ratioP2;P2;SDS_P1;SDS_P2;PMS_P1;PMS_P2;Temp;Humidity;BMP_temperature;BMP_pressure;BME280_temperature;BME280_humidity;BME280_pressure;Samples;Min_cycle;Max_cycle;Signal;HPM_P1;HPM_P2
2022/04/19 00:01:37;;;;;;;5.20;2.50;;;;;;;4.18;60.87;97917.75;105759;1282;22715;-82
2022/04/19 00:04:07;;;;;;;5.20;2.70;;;;;;;4.20;60.80;97916.80;105671;1282;137851;-83
2022/04/19 00:06:36;;;;;;;7.00;2.80;;;;;;;4.23;60.73;97916.50;105844;1281;22541;-84
2022/04/19 00:09:04;;;;;;;6.80;2.80;;;;;;;4.24;61.83;97913.38;105962;1282;25321;-82
2022/04/19 00:11:36;;;;;;;6.70;3.10;;;;;;;4.25;61.49;97908.33;105565;1284;137893;-82
2022/04/19 00:14:03;;;;;;;5.10;2.80;;;;;;;4.25;61.20;97907.33;105565;1284;22550;-83
2022/04/19 00:16:32;;;;;;;6.90;3.00;;;;;;;4.25;61.05;97905.91;105179;1282;137630;-84
2022/04/19 00:19:03;;;;;;;5.00;2.50;;;;;;;4.24;61.72;97903.35;105177;1284;22548;-85
2022/04/19 00:21:30;;;;;;;4.60;2.40;;;;;;;4.24;61.97;97902.03;105532;1281;24218;-84
2022/04/19 00:23:59;;;;;;;6.80;3.00;;;;;;;4.22;61.47;97898.96;105455;1281;137934;-84
2022/04/19 00:26:41;;;;;;;6.80;3.10;;;;;;;4.20;61.73;97893.13;105640;1284;25263;-84
2022/04/19 00:29:13;;;;;;;4.50;2.70;;;;;;;4.18;61.29;97888.12;105551;1282;137726;-84
2022/04/19 00:31:40;;;;;;;4.60;2.50;;;;;;;4.17;61.22;97884.19;105743;1282;22557;-84
2022/04/19 00:34:07;;;;;;;5.90;2.80;;;;;;;4.16;61.46;97882.55;105448;1282;138622;-81
2022/04/19 00:36:34;;;;;;;4.40;2.40;;;;;;;4.16;61.53;97878.15;105642;1282;22724;-82
2022/04/19 00:39:14;;;;;;;7.80;3.50;;;;;;;4.15;61.21;97875.00;105647;1282;25389;-81
2022/04/19 00:41:42;;;;;;;6.20;2.90;;;;;;;4.13;61.36;97875.60;105545;1281;137087;-84
2022/04/19 00:44:12;;;;;;;5.70;2.80;;;;;;;4.13;61.43;97874.44;105658;1281;22541;-82
2022/04/19 00:46:39;;;;;;;6.30;2.80;;;;;;;4.12;61.26;97873.77;105559;1281;137266;-82
2022/04/19 00:49:06;;;;;;;5.10;2.60;;;;;;;4.11;61.70;97871.81;105761;1281;22731;-82
2022/04/19 00:51:35;;;;;;;6.40;2.90;;;;;;;4.10;61.82;97867.08;105786;1281;25498;-83
2022/04/19 00:54:06;;;;;;;6.00;3.20;;;;;;;4.09;62.05;97867.09;105655;1282;137878;-83
2022/04/19 00:56:34;;;;;;;6.00;3.10;;;;;;;4.07;62.26;97862.92;105778;1282;22673;-83
2022/04/19 00:59:04;;;;;;;6.30;3.20;;;;;;;4.05;62.68;97861.55;105635;1282;137463;-83
2022/04/19 01:01:33;;;;;;;7.40;3.30;;;;;;;4.02;61.76;97857.78;105569;1282;23310;-83
2022/04/19 01:04:04;;;;;;;7.60;3.70;;;;;;;4.01;61.45;97854.54;105651;1281;137966;-83
2022/04/19 01:06:31;;;;;;;6.50;3.40;;;;;;;4.00;61.59;97851.48;105830;1281;23936;-83
2022/04/19 01:08:59;;;;;;;6.90;3.80;;;;;;;3.98;61.63;97843.04;105601;1281;22730;-83
2022/04/19 01:14:12;;;;;;;9.00;3.70;;;;;;;3.97;62.06;97845.41;105675;1282;31923;-83
2022/04/19 01:16:41;;;;;;;7.90;3.80;;;;;;;3.96;62.44;97843.60;105697;1282;137499;-83
2022/04/19 01:19:16;;;;;;;9.90;3.70;;;;;;;3.94;62.79;97840.09;105731;1282;26590;-83
2022/04/19 01:21:51;;;;;;;7.10;3.70;;;;;;;3.93;62.92;97838.60;105665;1282;25700;-82
2022/04/19 01:24:24;;;;;;;7.10;4.00;;;;;;;3.93;63.05;97841.45;105714;1282;137101;-83
2022/04/19 01:26:54;;;;;;;8.50;3.80;;;;;;;3.92;63.36;97839.85;105837;1282;22707;-83
2022/04/19 01:29:25;;;;;;;8.80;4.30;;;;;;;3.91;63.45;97839.61;105599;1282;137619;-83
2022/04/19 01:32:01;;;;;;;9.30;5.50;;;;;;;3.90;63.98;97836.10;105405;1283;25529;-82
2022/04/19 01:34:29;;;;;;;10.30;6.20;;;;;;;3.89;64.17;97833.27;105563;1281;137519;-83
2022/04/19 01:36:59;;;;;;;8.50;5.30;;;;;;;3.90;64.63;97830.41;105802;1281;22706;-82
2022/04/19 01:42:11;;;;;;;12.90;5.80;;;;;;;3.96;64.77;97829.20;105881;1281;137501;-83
2022/04/19 01:44:44;;;;;;;11.20;5.60;;;;;;;3.98;64.55;97827.95;105751;1282;22836;-83
2022/04/19 01:47:11;;;;;;;10.10;5.60;;;;;;;4.02;64.50;97825.73;105608;1282;137754;-83
2022/04/19 01:49:47;;;;;;;12.60;5.50;;;;;;;4.04;64.53;97825.89;105771;1282;24222;-83
2022/04/19 01:52:17;;;;;;;11.30;5.20;;;;;;;4.07;64.12;97822.92;105524;1282;137989;-82
2022/04/19 01:54:46;;;;;;;11.90;5.60;;;;;;;4.10;64.00;97821.16;105729;1282;25423;-83
2022/04/19 01:57:19;;;;;;;10.90;5.40;;;;;;;4.11;63.96;97817.70;105819;1281;25370;-82
2022/04/19 02:00:08;;;;;;;10.50;4.80;;;;;;;4.10;64.07;97822.48;105708;1281;137431;-83
2022/04/19 02:02:55;;;;;;;10.90;5.70;;;;;;;4.09;63.67;97829.12;105813;1281;22628;-83
2022/04/19 02:05:25;;;;;;;10.40;5.50;;;;;;;4.08;63.32;97827.60;105543;1284;137559;-83
2022/04/19 02:07:55;;;;;;;11.90;4.80;;;;;;;4.09;64.54;97831.58;105612;1283;24272;-82
2022/04/19 02:10:23;;;;;;;10.90;5.90;;;;;;;4.03;66.65;97830.73;105415;1282;137575;-83
2022/04/19 02:12:52;;;;;;;14.00;6.20;;;;;;;3.95;67.61;97839.51;105761;1282;22704;-82
2022/04/19 02:15:47;;;;;;;15.20;7.60;;;;;;;3.87;68.65;97849.48;105862;1281;30808;-82
2022/04/19 02:18:19;;;;;;;17.70;7.60;;;;;;;3.80;68.20;97847.75;105911;1282;137826;-83
2022/04/19 02:20:46;;;;;;;15.30;7.40;;;;;;;3.75;68.05;97853.71;105792;1281;24891;-82
2022/04/19 02:23:14;;;;;;;16.00;7.40;;;;;;;3.70;68.34;97849.92;105849;1281;137255;-83
2022/04/19 02:25:55;;;;;;;15.70;7.80;;;;;;;3.69;68.77;97855.85;105623;1283;24439;-82
2022/04/19 02:28:22;;;;;;;15.80;6.80;;;;;;;3.66;69.03;97861.59;105535;1284;138434;-83
2022/04/19 02:31:05;;;;;;;14.00;5.90;;;;;;;3.64;68.48;97858.37;105620;1284;25434;-82
2022/04/19 02:33:35;;;;;;;13.60;5.70;;;;;;;3.63;65.57;97853.29;105576;1284;24440;-83
2022/04/19 02:36:03;;;;;;;10.00;5.30;;;;;;;3.66;64.86;97852.98;105660;1283;137473;-83
2022/04/19 02:38:31;;;;;;;12.30;6.10;;;;;;;3.69;65.11;97850.80;105778;1282;22560;-83
2022/04/19 02:40:58;;;;;;;9.60;4.70;;;;;;;3.70;65.03;97852.20;105541;1282;137773;-82
2022/04/19 02:43:25;;;;;;;11.40;4.40;;;;;;;3.72;65.07;97856.34;105621;1282;24312;-82
2022/04/19 02:45:54;;;;;;;6.50;3.10;;;;;;;3.74;64.53;97857.45;105704;1282;25507;-82
2022/04/19 02:48:30;;;;;;;6.80;3.80;;;;;;;3.75;64.45;97854.75;105679;1282;137159;-83
2022/04/19 02:50:58;;;;;;;11.60;4.80;;;;;;;3.75;65.18;97860.34;105638;1282;23570;-82
2022/04/19 02:53:26;;;;;;;10.00;4.10;;;;;;;3.74;65.99;97863.49;105614;1282;137468;-82
2022/04/19 02:55:54;;;;;;;6.60;3.30;;;;;;;3.71;65.86;97863.21;105722;1281;24269;-82
2022/04/19 02:58:25;;;;;;;3.20;2.40;;;;;;;3.68;66.67;97864.36;105775;1281;137448;-81
2022/04/19 03:00:52;;;;;;;3.70;2.40;;;;;;;3.65;66.80;97860.14;105721;1281;22585;-82
2022/04/19 03:03:21;;;;;;;6.00;2.50;;;;;;;3.67;67.02;97861.52;105623;1281;24436;-82
2022/04/19 03:05:52;;;;;;;4.60;2.40;;;;;;;3.70;67.08;97861.98;105653;1281;137860;-81
2022/04/19 03:08:19;;;;;;;3.20;2.40;;;;;;;3.75;67.65;97854.80;105781;1284;26201;-81
2022/04/19 03:10:47;;;;;;;5.50;2.70;;;;;;;3.81;67.68;97858.48;105685;1283;137381;-82
2022/04/19 03:13:16;;;;;;;6.30;2.80;;;;;;;3.85;68.06;97855.89;105732;1282;22696;-82
2022/04/19 03:15:46;;;;;;;2.90;2.00;;;;;;;3.88;68.16;97857.77;105772;1281;22568;-82
2022/04/19 03:18:27;;;;;;;4.50;2.20;;;;;;;3.87;67.77;97857.29;105591;1282;137050;-82
2022/04/19 03:21:12;;;;;;;4.70;2.90;;;;;;;3.83;67.79;97852.84;105602;1282;22582;-82
2022/04/19 03:29:11;;;;;;;3.90;2.80;;;;;;;3.76;68.67;97850.15;105365;1284;137290;-82
2022/04/19 03:31:38;;;;;;;4.40;2.60;;;;;;;3.77;68.74;97847.31;105450;1285;22557;-82
2022/04/19 03:34:06;;;;;;;5.30;2.80;;;;;;;3.79;68.70;97844.38;105582;1284;22706;-82
2022/04/19 03:36:36;;;;;;;5.30;2.50;;;;;;;3.82;68.77;97844.05;105590;1282;137780;-82
2022/04/19 03:39:18;;;;;;;4.00;2.40;;;;;;;3.88;69.15;97844.94;105528;1284;22715;-82
2022/04/19 03:41:45;;;;;;;4.10;2.50;;;;;;;3.91;69.29;97842.69;105588;1282;137230;-82
2022/04/19 03:44:12;;;;;;;6.20;2.80;;;;;;;3.94;69.57;97843.70;105768;1281;22861;-82
2022/04/19 03:49:36;;;;;;;5.00;2.40;;;;;;;3.99;70.05;97843.56;105456;1282;24270;-82
2022/04/19 03:52:07;;;;;;;6.00;2.80;;;;;;;4.01;70.18;97840.66;105667;1282;23185;-82
2022/04/19 03:54:37;;;;;;;5.20;2.50;;;;;;;4.03;69.95;97848.36;105628;1282;136929;-82
2022/04/19 03:57:07;;;;;;;4.80;2.80;;;;;;;4.02;69.35;97847.66;105583;1282;22546;-82
2022/04/19 03:59:48;;;;;;;4.40;2.80;;;;;;;3.98;69.32;97853.41;105539;1282;137434;-82
2022/04/19 04:02:16;;;;;;;4.20;2.80;;;;;;;3.96;69.54;97851.39;105277;1285;23920;-81
2022/04/19 04:04:45;;;;;;;3.80;2.90;;;;;;;3.95;69.80;97851.56;105208;1284;138747;-82
2022/04/19 04:07:13;;;;;;;6.90;2.80;;;;;;;3.96;69.88;97852.59;105627;1282;22568;-82
2022/04/19 04:09:55;;;;;;;8.30;3.00;;;;;;;3.97;70.59;97854.48;105632;1284;24663;-82
2022/04/19 04:12:22;;;;;;;6.50;2.90;;;;;;;4.00;70.70;97854.25;105389;1284;137901;-82
2022/04/19 04:14:48;;;;;;;6.40;3.70;;;;;;;3.97;70.78;97853.08;105334;1285;22592;-82
2022/04/19 04:17:20;;;;;;;7.30;4.10;;;;;;;3.92;70.81;97855.77;105567;1282;137399;-81
2022/04/19 04:20:01;;;;;;;8.60;4.10;;;;;;;3.84;71.39;97851.05;105635;1282;22569;-81
2022/04/19 04:22:28;;;;;;;9.80;5.10;;;;;;;3.81;72.21;97857.27;105694;1281;137565;-81
2022/04/19 04:24:57;;;;;;;8.40;3.90;;;;;;;3.74;72.50;97856.48;105766;1281;25230;-81
2022/04/19 04:27:25;;;;;;;6.80;4.00;;;;;;;3.69;72.85;97857.23;105731;1282;22604;-80
2022/04/19 04:29:52;;;;;;;7.00;4.20;;;;;;;3.65;73.28;97857.24;105510;1282;138754;-81
2022/04/19 04:32:33;;;;;;;9.80;3.90;;;;;;;3.60;73.63;97855.91;105623;1284;22557;-81
2022/04/19 04:35:13;;;;;;;8.00;4.00;;;;;;;3.56;74.06;97857.84;105348;1284;137656;-81
2022/04/19 04:37:40;;;;;;;7.00;4.50;;;;;;;3.51;74.30;97858.14;105688;1282;25629;-81
2022/04/19 04:40:09;;;;;;;8.20;4.60;;;;;;;3.49;75.01;97859.48;105745;1282;22554;-81
2022/04/19 04:42:37;;;;;;;7.80;4.30;;;;;;;3.49;75.24;97854.70;105712;1282;137754;-80
2022/04/19 04:45:14;;;;;;;8.70;3.80;;;;;;;3.52;75.43;97853.17;105706;1282;22622;-80
2022/04/19 04:50:24;;;;;;;6.90;4.20;;;;;;;3.57;75.71;97853.65;105544;1284;22919;-80
2022/04/19 04:53:06;;;;;;;5.40;3.80;;;;;;;3.63;76.10;97856.80;105458;1284;137742;-80
2022/04/19 04:55:34;;;;;;;7.30;4.70;;;;;;;3.71;76.25;97852.06;105600;1285;22667;-81
2022/04/19 04:58:02;;;;;;;7.40;4.50;;;;;;;3.80;76.24;97850.55;105793;1282;24448;-81
2022/04/19 05:00:30;;;;;;;6.90;4.80;;;;;;;3.86;75.89;97848.70;105734;1282;138237;-80
2022/04/19 05:03:00;;;;;;;7.90;4.30;;;;;;;3.91;76.13;97842.80;105643;1282;23117;-80
2022/04/19 05:05:27;;;;;;;6.20;4.20;;;;;;;3.97;76.44;97847.35;105580;1283;137250;-81
2022/04/19 05:07:58;;;;;;;6.70;4.50;;;;;;;4.08;76.56;97842.81;105718;1281;24393;-80
2022/04/19 05:10:27;;;;;;;6.60;4.20;;;;;;;4.18;76.50;97843.27;105606;1282;137344;-80
2022/04/19 05:12:54;;;;;;;7.90;4.30;;;;;;;4.28;76.52;97841.48;105562;1284;25498;-81
2022/04/19 05:15:24;;;;;;;6.20;4.30;;;;;;;4.37;76.08;97845.77;105574;1282;25287;-80
2022/04/19 05:17:52;;;;;;;7.00;3.90;;;;;;;4.45;75.97;97844.13;105604;1282;137291;-80
2022/04/19 05:20:20;;;;;;;7.30;4.20;;;;;;;4.50;75.49;97846.41;105697;1284;24452;-81
2022/04/19 05:23:01;;;;;;;6.80;3.90;;;;;;;4.57;75.24;97839.59;105598;1284;137381;-80
2022/04/19 05:25:28;;;;;;;6.20;4.10;;;;;;;4.62;74.67;97839.12;105735;1285;24103;-81
2022/04/19 05:27:56;;;;;;;6.10;4.40;;;;;;;4.68;74.56;97841.73;105714;1282;22573;-80
2022/04/19 05:30:24;;;;;;;9.00;4.10;;;;;;;4.74;74.30;97837.85;105787;1282;137169;-81
2022/04/19 05:32:51;;;;;;;5.80;4.10;;;;;;;4.77;73.89;97840.27;105665;1282;24259;-81
2022/04/19 05:35:18;;;;;;;6.20;4.10;;;;;;;4.80;73.82;97837.45;105482;1283;137972;-81
2022/04/19 05:37:46;;;;;;;8.00;3.90;;;;;;;4.85;73.61;97835.29;105665;1282;22562;-81
2022/04/19 05:40:14;;;;;;;6.20;3.80;;;;;;;4.87;73.33;97834.89;105734;1282;138112;-81
2022/04/19 05:42:41;;;;;;;6.20;4.00;;;;;;;4.88;73.38;97835.45;105795;1282;22542;-81
2022/04/19 05:45:09;;;;;;;8.20;4.20;;;;;;;4.92;73.59;97831.56;105561;1282;23546;-80
2022/04/19 05:47:36;;;;;;;7.60;4.80;;;;;;;4.95;73.17;97830.20;105572;1283;137205;-81
2022/04/19 05:50:03;;;;;;;6.40;4.40;;;;;;;4.95;73.08;97832.89;105664;1282;22553;-81
2022/04/19 05:52:30;;;;;;;7.70;4.40;;;;;;;4.94;73.12;97830.86;105623;1282;137355;-81
2022/04/19 05:54:57;;;;;;;9.50;5.00;;;;;;;4.97;72.84;97830.88;105744;1283;22644;-81
2022/04/19 05:57:25;;;;;;;6.80;4.70;;;;;;;5.00;72.59;97830.21;105721;1284;24093;-81
2022/04/19 05:59:52;;;;;;;9.10;4.90;;;;;;;5.01;72.47;97829.02;105939;1282;137736;-81
2022/04/19 06:05:00;;;;;;;7.80;4.70;;;;;;;5.05;72.00;97832.24;105569;1285;137968;-81
2022/04/19 06:07:29;;;;;;;9.40;5.40;;;;;;;5.05;71.99;97826.77;105841;1282;25417;-81
2022/04/19 06:09:59;;;;;;;11.70;6.00;;;;;;;5.08;71.75;97826.77;106169;1282;22576;-81
2022/04/19 06:12:26;;;;;;;7.30;5.30;;;;;;;5.11;71.31;97827.48;105797;1282;137404;-81
2022/04/19 06:14:54;;;;;;;9.30;5.70;;;;;;;5.15;70.46;97828.77;105828;1282;22639;-81
2022/04/19 06:17:27;;;;;;;;;;;;;;;5.16;70.40;97834.98;105804;1282;137250;-81
2022/04/19 06:20:09;;;;;;;9.80;6.30;;;;;;;5.20;70.83;97828.01;105899;1285;25273;-81
2022/04/19 06:22:36;;;;;;;7.00;5.30;;;;;;;5.29;71.10;97827.48;105900;1282;137589;-79
2022/04/19 06:25:08;;;;;;;10.20;5.20;;;;;;;5.36;70.82;97831.04;106201;1283;22706;-80
2022/04/19 06:27:35;;;;;;;10.10;5.80;;;;;;;5.45;70.71;97830.69;105780;1285;24329;-80
2022/04/19 06:30:04;;;;;;;10.90;5.90;;;;;;;5.57;70.88;97833.94;105793;1281;138579;-80
2022/04/19 06:32:32;;;;;;;9.30;5.60;;;;;;;5.72;70.36;97833.04;105728;1282;22583;-80
2022/04/19 06:34:59;;;;;;;13.10;6.10;;;;;;;5.83;69.25;97837.33;105777;1282;137919;-80
2022/04/19 06:37:29;;;;;;;11.70;6.30;;;;;;;5.90;68.93;97836.60;106032;1282;23288;-81
2022/04/19 06:40:06;;;;;;;9.10;5.50;;;;;;;5.98;69.07;97832.35;106014;1282;22886;-81
2022/04/19 06:42:34;;;;;;;10.60;6.80;;;;;;;6.08;68.94;97835.04;105797;1282;137086;-81
2022/04/19 06:45:15;;;;;;;10.90;5.90;;;;;;;6.17;68.42;97827.05;105711;1282;23540;-81
2022/04/19 06:48:01;;;;;;;11.30;6.50;;;;;;;6.23;68.71;97830.14;105558;1282;138138;-81
2022/04/19 06:50:45;;;;;;;10.40;6.70;;;;;;;6.35;68.36;97831.70;105894;1282;23438;-81
2022/04/19 06:53:13;;;;;;;10.20;6.50;;;;;;;6.40;68.11;97833.79;105558;1283;137435;-81
2022/04/19 06:56:08;;;;;;;9.60;6.40;;;;;;;6.47;68.27;97835.45;106030;1282;24250;-81
2022/04/19 06:58:35;;;;;;;11.50;6.50;;;;;;;6.56;68.08;97835.84;105711;1282;137411;-81
2022/04/19 07:01:02;;;;;;;11.50;7.30;;;;;;;6.66;67.45;97837.42;105956;1283;24979;-82
2022/04/19 07:03:31;;;;;;;11.90;8.70;;;;;;;6.70;67.92;97832.48;106152;1281;22565;-81
2022/04/19 07:05:59;;;;;;;10.30;8.40;;;;;;;6.74;67.99;97830.08;105944;1281;137460;-81
2022/04/19 07:08:26;;;;;;;10.80;7.50;;;;;;;6.76;67.26;97833.70;105853;1283;24444;-80
2022/04/19 07:10:53;;;;;;;11.20;7.60;;;;;;;6.76;66.41;97835.82;105871;1282;138752;-81
2022/04/19 07:13:47;;;;;;;16.80;8.20;;;;;;;6.78;67.12;97837.91;105818;1282;22602;-81
2022/04/19 07:16:47;;;;;;;12.00;8.30;;;;;;;6.80;68.15;97837.30;105590;1282;137858;-81
2022/04/19 07:26:37;;;;;;;15.60;8.10;;;;;;;6.78;67.98;97842.90;105871;1282;22588;-81
2022/04/19 07:28:04;;;;;;;12.50;8.60;;;;;;;6.89;66.93;97850.54;105871;1282;22686;-78
2022/04/19 07:30:39;;;;;;;10.60;7.90;;;;;;;6.87;66.48;97853.82;105592;1281;137346;-77
2022/04/19 07:33:06;;;;;;;11.30;8.60;;;;;;;6.83;67.14;97860.33;105699;1282;24400;-76
2022/04/19 07:35:36;;;;;;;27.60;8.60;;;;;;;6.83;66.90;97865.52;105786;1282;137215;-77
2022/04/19 07:38:03;;;;;;;12.50;9.10;;;;;;;6.85;66.88;97861.39;106134;1282;22559;-80
2022/04/19 07:40:39;;;;;;;14.00;9.10;;;;;;;6.93;67.22;97861.37;106119;1282;137925;-78
2022/04/19 07:43:06;;;;;;;14.70;8.70;;;;;;;7.03;67.15;97860.79;106245;1282;23677;-79
2022/04/19 07:45:34;;;;;;;11.00;8.30;;;;;;;7.13;66.57;97859.75;106245;1282;25309;-80
2022/04/19 07:48:04;;;;;;;15.10;9.00;;;;;;;7.22;66.16;97854.04;106414;1282;137840;-79
2022/04/19 07:50:34;;;;;;;14.70;8.90;;;;;;;7.29;65.17;97861.23;106588;1282;22715;-80
2022/04/19 07:53:02;;;;;;;15.70;9.20;;;;;;;7.38;65.35;97859.02;106072;1282;137779;-85
2022/04/19 07:55:29;;;;;;;10.80;8.60;;;;;;;7.42;65.28;97859.82;106526;1282;25514;-79
2022/04/19 07:57:56;;;;;;;10.80;9.10;;;;;;;7.49;65.00;97862.13;106253;1282;24299;-79
2022/04/19 08:00:27;;;;;;;12.10;9.30;;;;;;;7.50;64.58;97861.66;105890;1282;137383;-79
2022/04/19 08:02:55;;;;;;;12.90;8.70;;;;;;;7.45;64.20;97864.38;106115;1282;30423;-79
2022/04/19 08:05:24;;;;;;;11.10;8.30;;;;;;;7.46;64.28;97863.73;105800;1282;137670;-79
2022/04/19 08:08:06;;;;;;;12.20;8.40;;;;;;;7.54;63.81;97865.95;105594;1285;25268;-79
2022/04/19 08:10:33;;;;;;;15.30;10.60;;;;;;;7.64;64.52;97864.37;105741;1284;137521;-79
2022/04/19 08:13:01;;;;;;;12.60;8.90;;;;;;;7.75;63.83;97866.70;105640;1284;22572;-80
2022/04/19 08:15:28;;;;;;;12.00;8.60;;;;;;;7.81;63.60;97867.04;105678;1285;24240;-80
2022/04/19 08:17:55;;;;;;;15.40;10.20;;;;;;;7.91;63.41;97866.09;105775;1282;137451;-79
2022/04/19 08:20:22;;;;;;;14.00;10.30;;;;;;;8.01;63.03;97869.26;105880;1282;22544;-80
2022/04/19 08:22:49;;;;;;;13.00;8.90;;;;;;;8.12;62.65;97870.16;105735;1281;138289;-80
2022/04/19 08:25:22;;;;;;;17.30;9.50;;;;;;;8.26;62.91;97873.40;105727;1281;23928;-80
2022/04/19 08:27:49;;;;;;;11.00;8.20;;;;;;;8.41;62.33;97875.61;106078;1281;25571;-80
2022/04/19 08:30:18;;;;;;;13.10;8.40;;;;;;;8.51;62.06;97874.77;105680;1282;137488;-80
2022/04/19 08:32:48;;;;;;;12.00;9.30;;;;;;;8.64;61.73;97879.48;105644;1282;24303;-80
2022/04/19 08:35:20;;;;;;;14.20;9.40;;;;;;;8.68;61.05;97881.35;105571;1284;137357;-80
2022/04/19 08:37:47;;;;;;;12.80;8.80;;;;;;;8.79;61.05;97879.94;105349;1284;24039;-81
2022/04/19 08:40:16;;;;;;;14.60;9.30;;;;;;;8.81;60.82;97878.43;105419;1284;24462;-81
2022/04/19 08:42:45;;;;;;;16.30;9.70;;;;;;;8.75;60.46;97876.50;105847;1281;137717;-81
2022/04/19 08:45:14;;;;;;;10.80;9.00;;;;;;;8.83;61.57;97878.76;105764;1281;25263;-80
2022/04/19 08:47:44;;;;;;;13.20;9.30;;;;;;;8.95;61.25;97877.41;105651;1282;137814;-80
2022/04/19 08:50:13;;;;;;;;;;;;;;;9.06;60.03;97877.80;106013;1281;22521;-79
2022/04/19 08:52:41;;;;;;;15.10;8.50;;;;;;;9.12;59.36;97877.56;105879;1281;124993;-79
2022/04/19 08:57:53;;;;;;;11.00;9.00;;;;;;;9.28;59.43;97880.05;105652;1284;24285;-79
2022/04/19 09:00:23;;;;;;;16.00;10.40;;;;;;;9.35;59.14;97878.85;105593;1284;137512;-79
2022/04/19 09:02:53;;;;;;;12.90;8.70;;;;;;;9.27;58.34;97880.81;105928;1282;25323;-79
2022/04/19 09:05:21;;;;;;;11.70;8.70;;;;;;;9.34;58.66;97882.15;106039;1282;137897;-79
2022/04/19 09:07:50;;;;;;;10.50;8.50;;;;;;;9.37;58.02;97885.33;105868;1282;22706;-79
2022/04/19 09:10:32;;;;;;;12.10;9.30;;;;;;;9.50;57.44;97886.05;105935;1282;25325;-79
2022/04/19 09:13:05;;;;;;;11.10;8.20;;;;;;;9.64;57.76;97889.38;105611;1283;137396;-79
2022/04/19 09:15:46;;;;;;;14.00;9.90;;;;;;;9.85;57.66;97888.87;105792;1285;23028;-79
2022/04/19 09:18:32;;;;;;;10.90;8.50;;;;;;;9.99;56.93;97888.09;105776;1285;137748;-79
2022/04/19 09:21:01;;;;;;;14.00;9.70;;;;;;;10.04;56.41;97888.38;105917;1284;25250;-79
2022/04/19 09:23:29;;;;;;;;;;;;;;;10.13;56.35;97888.69;105782;1282;139842;-79
2022/04/19 09:26:00;;;;;;;13.80;9.90;;;;;;;10.18;55.37;97892.17;106018;1282;22626;-79
2022/04/19 09:28:28;;;;;;;14.10;9.30;;;;;;;10.16;55.59;97890.40;105946;1282;26516;-79
2022/04/19 09:31:13;;;;;;;11.60;9.70;;;;;;;10.27;56.11;97892.04;105833;1282;137956;-78
2022/04/19 09:34:00;;;;;;;11.80;9.20;;;;;;;10.30;54.79;97894.84;105742;1283;24365;-79
2022/04/19 09:36:27;;;;;;;11.90;9.10;;;;;;;10.18;54.46;97893.63;105576;1282;139257;-79
2022/04/19 09:38:54;;;;;;;14.10;9.10;;;;;;;10.04;55.04;97891.96;105464;1283;24296;-80
2022/04/19 09:41:32;;;;;;;16.50;9.60;;;;;;;10.06;55.67;97892.75;105806;1283;138487;-79
2022/04/19 09:44:11;;;;;;;10.70;8.50;;;;;;;9.99;54.76;97892.88;106049;1282;22647;-79
2022/04/19 09:46:38;;;;;;;15.30;9.50;;;;;;;9.89;54.86;97898.05;105759;1283;25278;-79
2022/04/19 09:49:06;;;;;;;12.30;9.10;;;;;;;10.04;55.33;97899.13;105671;1284;137668;-79
2022/04/19 09:51:36;;;;;;;12.00;8.50;;;;;;;10.17;55.18;97902.02;105594;1284;22568;-78
2022/04/19 09:54:04;;;;;;;14.00;8.90;;;;;;;10.10;54.34;97903.95;105777;1281;137823;-80
2022/04/19 09:56:38;;;;;;;13.40;9.90;;;;;;;9.94;54.15;97906.88;105814;1281;25419;-80
2022/04/19 09:59:07;;;;;;;14.00;10.60;;;;;;;9.95;55.09;97906.72;105826;1281;138183;-80
2022/04/19 10:09:39;;;;;;;10.70;8.20;;;;;;;10.09;54.59;97907.41;106209;1282;25494;-81
2022/04/19 10:12:10;;;;;;;12.00;8.90;;;;;;;10.18;55.11;97915.99;105799;1282;138255;-79
2022/04/19 10:14:37;;;;;;;12.10;10.30;;;;;;;10.10;54.32;97915.05;105997;1281;22550;-79
2022/04/19 10:17:05;;;;;;;11.70;8.80;;;;;;;9.99;53.81;97917.86;105729;1281;138343;-79
2022/04/19 10:19:33;;;;;;;12.40;8.70;;;;;;;9.84;53.55;97922.64;105942;1281;22572;-79
2022/04/19 10:22:09;;;;;;;11.10;8.50;;;;;;;9.71;54.17;97922.14;105683;1281;22544;-79
2022/04/19 10:24:47;;;;;;;10.60;9.10;;;;;;;9.54;54.27;97927.54;105788;1283;137573;-79
2022/04/19 10:27:14;;;;;;;10.10;8.10;;;;;;;9.47;54.34;97924.06;105798;1283;22593;-79
2022/04/19 10:29:44;;;;;;;14.30;9.00;;;;;;;9.41;55.22;97925.66;105801;1282;138009;-79
2022/04/19 10:32:12;;;;;;;9.80;8.20;;;;;;;9.33;54.56;97927.90;105941;1283;23404;-79
2022/04/19 10:34:44;;;;;;;11.00;8.30;;;;;;;9.25;54.25;97924.64;105882;1281;22544;-80
2022/04/19 10:37:26;;;;;;;11.30;8.50;;;;;;;9.19;54.23;97929.33;105767;1281;138053;-78
2022/04/19 10:39:59;;;;;;;10.20;8.10;;;;;;;9.13;54.01;97930.42;105846;1281;22579;-79
2022/04/19 10:42:43;;;;;;;9.20;8.20;;;;;;;9.10;54.18;97932.84;105687;1281;137598;-79
2022/04/19 10:45:25;;;;;;;10.80;8.40;;;;;;;9.12;54.61;97932.25;105762;1282;24256;-79
2022/04/19 10:47:58;;;;;;;10.40;8.80;;;;;;;9.26;54.13;97933.27;105809;1283;137517;-79
2022/04/19 10:50:45;;;;;;;10.90;8.30;;;;;;;9.55;54.22;97931.40;105711;1284;22563;-79
2022/04/19 10:53:13;;;;;;;8.80;7.90;;;;;;;9.77;53.73;97930.98;105608;1283;137779;-79
2022/04/19 10:56:02;;;;;;;11.10;8.10;;;;;;;9.83;52.52;97926.86;106049;1281;22567;-79
2022/04/19 10:58:44;;;;;;;11.50;8.40;;;;;;;10.00;52.55;97930.98;105735;1283;22563;-79
2022/04/19 11:01:38;;;;;;;10.20;7.70;;;;;;;10.05;52.83;97926.54;105701;1281;137654;-79
2022/04/19 11:04:05;;;;;;;11.20;7.20;;;;;;;10.19;52.67;97926.52;105998;1281;22593;-79
2022/04/19 11:06:36;;;;;;;12.40;8.10;;;;;;;10.49;52.76;97928.70;105733;1281;138371;-79
2022/04/19 11:09:20;;;;;;;8.80;7.50;;;;;;;10.87;51.51;97931.05;105889;1281;22559;-79
2022/04/19 11:11:48;;;;;;;8.50;7.00;;;;;;;11.18;50.75;97932.43;105755;1283;138097;-79
2022/04/19 11:14:36;;;;;;;9.80;8.00;;;;;;;11.48;49.82;97932.51;105841;1281;24359;-79
2022/04/19 11:17:19;;;;;;;8.90;7.30;;;;;;;11.71;49.46;97925.05;105704;1281;137986;-79
2022/04/19 11:20:14;;;;;;;7.50;6.00;;;;;;;11.91;48.58;97925.45;105937;1281;22669;-79
2022/04/19 11:22:47;;;;;;;8.70;7.40;;;;;;;11.98;46.64;97921.70;106044;1281;25485;-80
2022/04/19 11:25:16;;;;;;;8.50;7.00;;;;;;;11.98;46.53;97928.20;106079;1281;137559;-79
2022/04/19 11:27:52;;;;;;;10.50;7.10;;;;;;;11.95;47.19;97930.55;105859;1283;22724;-79
2022/04/19 11:30:26;;;;;;;8.80;7.10;;;;;;;12.11;46.70;97932.45;105887;1283;138192;-79
2022/04/19 11:32:59;;;;;;;7.60;6.80;;;;;;;12.22;46.08;97934.94;105785;1284;22566;-79
2022/04/19 11:35:45;;;;;;;8.80;6.70;;;;;;;12.46;46.22;97925.92;105620;1281;137661;-79
2022/04/19 11:38:13;;;;;;;8.20;6.90;;;;;;;12.66;44.93;97923.67;106217;1281;25300;-79
2022/04/19 11:48:58;;;;;;;7.20;6.60;;;;;;;12.65;43.04;97931.70;105640;1284;137557;-79
2022/04/19 11:51:25;;;;;;;9.60;6.30;;;;;;;12.53;43.68;97931.14;105984;1282;22550;-79
2022/04/19 11:53:52;;;;;;;9.10;6.90;;;;;;;12.27;42.96;97924.02;105962;1282;139212;-79
2022/04/19 11:56:20;;;;;;;7.00;6.30;;;;;;;11.97;43.99;97927.16;106064;1281;22547;-79
2022/04/19 11:58:52;;;;;;;7.80;6.30;;;;;;;11.79;44.53;97927.67;105625;1281;22675;-79
2022/04/19 12:01:20;;;;;;;8.90;6.10;;;;;;;11.87;44.40;97929.34;105490;1281;138367;-78
2022/04/19 12:04:10;;;;;;;7.70;6.10;;;;;;;12.07;44.06;97930.73;105579;1281;22957;-78
2022/04/19 12:06:37;;;;;;;7.80;5.70;;;;;;;12.19;44.19;97929.41;105624;1281;137723;-78
2022/04/19 12:09:04;;;;;;;7.40;6.60;;;;;;;12.16;43.70;97929.73;105588;1283;24865;-79
2022/04/19 12:11:31;;;;;;;7.10;6.40;;;;;;;12.04;43.22;97928.23;105553;1284;137674;-79
2022/04/19 12:13:58;;;;;;;7.00;6.30;;;;;;;11.96;44.43;97929.45;105765;1283;23363;-79
2022/04/19 12:16:42;;;;;;;7.20;5.70;;;;;;;11.91;44.46;97925.27;105708;1281;24233;-79
2022/04/19 12:19:12;;;;;;;6.70;5.70;;;;;;;12.12;44.03;97926.29;105572;1281;138819;-78
2022/04/19 12:21:48;;;;;;;6.50;5.90;;;;;;;12.42;43.46;97921.55;105803;1281;25368;-80
2022/04/19 12:24:21;;;;;;;8.50;6.70;;;;;;;12.47;42.75;97920.70;105842;1282;138014;-75
2022/04/19 12:27:02;;;;;;;7.30;5.10;;;;;;;12.39;42.13;97918.77;105911;1284;24320;-74
2022/04/19 12:29:30;;;;;;;6.30;5.70;;;;;;;12.21;41.11;97920.14;105773;1284;138055;-79